createdAt,value
2023-05-03T00:02:12.348Z,10.30
2023-05-03T00:04:39.528Z,7.80
2023-05-03T00:07:06.930Z,7.70
2023-05-03T00:09:35.740Z,9.80
2023-05-03T00:12:02.757Z,9.40
2023-05-03T00:14:29.699Z,14.80
2023-05-03T00:16:56.544Z,13.80
2023-05-03T00:19:31.350Z,11.10
2023-05-03T00:21:59.598Z,9.10
2023-05-03T00:24:27.489Z,7.80
2023-05-03T00:26:54.299Z,6.20
2023-05-03T00:29:23.174Z,15.40
2023-05-03T00:31:50.021Z,6.70
2023-05-03T00:34:17.142Z,16.30
2023-05-03T00:36:44.988Z,6.80
2023-05-03T00:39:12.298Z,5.90
2023-05-03T00:41:39.274Z,8.40
2023-05-03T00:44:07.241Z,7.00
2023-05-03T00:46:34.767Z,3.20
2023-05-03T00:49:01.701Z,8.80
2023-05-03T00:51:28.566Z,5.00
2023-05-03T00:53:55.872Z,5.10
2023-05-03T00:56:23.842Z,6.40
2023-05-03T00:58:51.854Z,6.00
2023-05-03T01:01:19.061Z,8.50
2023-05-03T01:03:46.605Z,12.60
2023-05-03T01:06:37.961Z,6.90
2023-05-03T01:09:10.414Z,9.30
2023-05-03T01:11:54.800Z,10.10
2023-05-03T01:14:50.404Z,4.10
2023-05-03T01:17:18.429Z,5.50
2023-05-03T01:19:56.479Z,6.60
2023-05-03T01:22:27.190Z,6.00
2023-05-03T01:25:06.277Z,8.70
2023-05-03T01:27:33.305Z,9.00
2023-05-03T01:30:00.319Z,7.40
2023-05-03T01:32:51.456Z,7.60
2023-05-03T01:35:21.117Z,11.70
2023-05-03T01:37:48.358Z,14.70
2023-05-03T01:40:16.984Z,7.20
2023-05-03T01:42:43.866Z,8.20
2023-05-03T01:45:11.142Z,8.20
2023-05-03T01:47:38.045Z,5.30
2023-05-03T01:50:05.320Z,11.40
2023-05-03T01:52:32.535Z,8.40
2023-05-03T01:55:00.311Z,10.00
2023-05-03T01:57:27.167Z,5.90
2023-05-03T01:59:54.026Z,11.80
2023-05-03T02:02:20.892Z,7.20
2023-05-03T02:04:47.801Z,13.20
2023-05-03T02:07:14.690Z,10.80
2023-05-03T02:09:41.772Z,9.20
2023-05-03T02:12:10.018Z,6.70
2023-05-03T02:14:37.006Z,8.50
2023-05-03T02:17:03.828Z,13.00
2023-05-03T02:19:30.753Z,14.50
2023-05-03T02:21:57.735Z,11.90
2023-05-03T02:24:24.605Z,10.10
2023-05-03T02:26:51.438Z,8.70
2023-05-03T02:29:18.580Z,5.80
2023-05-03T02:31:45.802Z,9.40
2023-05-03T02:34:12.703Z,5.30
2023-05-03T02:36:39.577Z,4.00
2023-05-03T02:39:06.949Z,33.50
2023-05-03T02:41:33.870Z,10.20
2023-05-03T02:44:01.023Z,8.60
2023-05-03T02:46:28.032Z,5.70
2023-05-03T02:48:54.932Z,7.40
2023-05-03T02:51:21.768Z,5.90
2023-05-03T02:53:49.070Z,13.30
2023-05-03T02:56:15.887Z,12.60
2023-05-03T02:58:42.756Z,10.50
2023-05-03T03:01:11.301Z,10.90
2023-05-03T03:03:38.234Z,12.60
2023-05-03T03:06:06.874Z,9.00
2023-05-03T03:08:34.505Z,10.70
2023-05-03T03:11:01.760Z,11.70
2023-05-03T03:13:28.638Z,8.20
2023-05-03T03:15:55.584Z,10.70
2023-05-03T03:18:22.406Z,7.50
2023-05-03T03:20:49.317Z,7.70
2023-05-03T03:23:16.299Z,11.70
2023-05-03T03:25:43.231Z,7.40
2023-05-03T03:28:10.125Z,4.00
2023-05-03T03:30:39.651Z,7.20
2023-05-03T03:35:54.944Z,15.30
2023-05-03T03:38:22.995Z,6.90
2023-05-03T03:40:54.482Z,6.70
2023-05-03T03:43:21.430Z,6.70
2023-05-03T03:45:48.438Z,8.20
2023-05-03T03:48:15.678Z,6.10
2023-05-03T03:50:42.819Z,6.50
2023-05-03T03:53:11.702Z,9.90
2023-05-03T03:55:39.620Z,7.30
2023-05-03T03:58:07.078Z,8.50
2023-05-03T04:00:35.829Z,12.00
2023-05-03T04:03:07.771Z,7.60
2023-05-03T04:05:35.200Z,5.60
2023-05-03T04:08:02.392Z,7.80
2023-05-03T04:10:30.554Z,10.20
2023-05-03T04:12:57.423Z,5.90
2023-05-03T04:15:24.416Z,12.30
2023-05-03T04:17:51.624Z,11.60
2023-05-03T04:20:20.139Z,7.60
2023-05-03T04:22:48.206Z,10.50
2023-05-03T04:25:17.285Z,11.80
2023-05-03T04:27:48.932Z,11.90
2023-05-03T04:30:17.640Z,11.30
2023-05-03T04:32:47.737Z,11.20
2023-05-03T04:35:14.807Z,8.90
2023-05-03T04:37:44.614Z,14.30
2023-05-03T04:40:12.932Z,15.70
2023-05-03T04:42:44.554Z,8.30
2023-05-03T04:45:11.783Z,11.50
2023-05-03T04:47:38.687Z,8.00
2023-05-03T04:50:10.694Z,8.70
2023-05-03T04:52:38.620Z,7.70
2023-05-03T04:55:06.542Z,13.60
2023-05-03T04:57:34.024Z,15.60
2023-05-03T05:00:01.765Z,16.70
2023-05-03T05:02:29.180Z,10.00
2023-05-03T05:04:56.069Z,11.80
2023-05-03T05:07:22.893Z,11.10
2023-05-03T05:09:49.764Z,11.80
2023-05-03T05:12:17.878Z,20.20
2023-05-03T05:14:45.758Z,18.60
2023-05-03T05:17:13.442Z,15.60
2023-05-03T05:19:43.120Z,19.30
2023-05-03T05:22:11.173Z,19.80
2023-05-03T05:24:51.653Z,9.00
2023-05-03T05:27:19.088Z,15.90
2023-05-03T05:29:46.108Z,24.20
2023-05-03T05:32:14.996Z,17.20
2023-05-03T05:34:45.115Z,20.70
2023-05-03T05:37:15.260Z,22.50
2023-05-03T05:39:42.717Z,15.90
2023-05-03T05:42:10.859Z,15.70
2023-05-03T05:44:37.796Z,25.70
2023-05-03T05:47:07.320Z,24.60
2023-05-03T05:49:36.240Z,14.70
2023-05-03T05:52:05.276Z,14.70
2023-05-03T05:54:32.515Z,31.10
2023-05-03T05:56:59.726Z,26.80
2023-05-03T05:59:29.749Z,25.00
2023-05-03T06:01:57.378Z,18.10
2023-05-03T06:04:24.409Z,34.30
2023-05-03T06:06:51.978Z,13.60
2023-05-03T06:11:51.395Z,18.00
2023-05-03T06:14:20.809Z,19.50
2023-05-03T06:16:48.167Z,22.00
2023-05-03T06:19:15.392Z,26.20
2023-05-03T06:21:42.247Z,32.80
2023-05-03T06:24:10.025Z,42.80
2023-05-03T06:26:37.030Z,15.10
2023-05-03T06:29:04.210Z,26.80
2023-05-03T06:31:31.238Z,32.10
2023-05-03T06:33:58.624Z,41.30
2023-05-03T06:36:27.848Z,27.10
2023-05-03T06:38:55.095Z,10.80
2023-05-03T06:41:22.038Z,33.80
2023-05-03T06:43:48.949Z,17.40
2023-05-03T06:46:18.277Z,41.00
2023-05-03T06:48:47.736Z,38.00
2023-05-03T06:51:15.894Z,25.90
2023-05-03T06:53:42.810Z,14.50
2023-05-03T06:56:09.936Z,31.50
2023-05-03T06:58:37.061Z,19.60
2023-05-03T07:01:03.910Z,10.00
2023-05-03T07:03:32.119Z,27.10
2023-05-03T07:05:59.675Z,14.00
2023-05-03T07:08:26.559Z,15.50
2023-05-03T07:10:53.441Z,13.40
2023-05-03T07:13:21.526Z,41.10
2023-05-03T07:15:48.475Z,19.70
2023-05-03T07:18:15.382Z,25.10
2023-05-03T07:20:42.347Z,24.80
2023-05-03T07:23:09.194Z,32.70
2023-05-03T07:25:36.006Z,33.10
2023-05-03T07:28:03.461Z,17.50
2023-05-03T07:30:30.385Z,22.50
2023-05-03T07:32:57.496Z,31.60
2023-05-03T07:35:24.637Z,14.10
2023-05-03T07:37:51.584Z,14.40
2023-05-03T07:40:20.678Z,14.70
2023-05-03T07:43:56.673Z,12.30
2023-05-03T07:46:23.682Z,12.10
2023-05-03T07:48:50.785Z,9.90
2023-05-03T07:51:17.652Z,22.00
2023-05-03T07:53:44.616Z,21.80
2023-05-03T07:56:11.561Z,13.40
2023-05-03T07:58:40.647Z,16.20
2023-05-03T08:01:08.043Z,17.90
2023-05-03T08:03:36.101Z,30.80
2023-05-03T08:06:04.630Z,37.60
2023-05-03T08:08:32.318Z,37.00
2023-05-03T08:10:59.204Z,26.70
2023-05-03T08:13:26.241Z,18.60
2023-05-03T08:15:53.225Z,21.40
2023-05-03T08:18:22.230Z,15.20
2023-05-03T08:20:50.067Z,25.70
2023-05-03T08:23:19.319Z,13.00
2023-05-03T08:25:50.305Z,21.40
2023-05-03T08:28:17.142Z,12.20
2023-05-03T08:30:45.185Z,11.10
2023-05-03T08:33:12.047Z,17.70
2023-05-03T08:35:39.032Z,57.60
2023-05-03T08:38:06.531Z,21.60
2023-05-03T08:40:37.260Z,25.10
2023-05-03T08:43:08.736Z,16.30
2023-05-03T08:45:35.738Z,46.90
2023-05-03T08:48:04.703Z,55.40
2023-05-03T08:50:32.060Z,37.70
2023-05-03T08:52:59.667Z,29.10
2023-05-03T08:55:27.610Z,42.90
2023-05-03T08:57:54.580Z,15.60
2023-05-03T09:00:28.291Z,16.20
2023-05-03T09:02:55.242Z,46.10
2023-05-03T09:05:22.115Z,14.40
2023-05-03T09:08:06.558Z,14.40
2023-05-03T09:10:34.430Z,51.80
2023-05-03T09:13:02.543Z,76.70
2023-05-03T09:15:30.738Z,28.20
2023-05-03T09:18:17.627Z,17.90
2023-05-03T09:20:54.367Z,23.60
2023-05-03T09:23:27.647Z,15.30
2023-05-03T09:25:54.545Z,16.30
2023-05-03T09:28:21.439Z,15.80
2023-05-03T09:30:49.071Z,8.30
2023-05-03T09:33:23.125Z,16.40
2023-05-03T09:36:00.606Z,13.00
2023-05-03T09:38:28.662Z,9.30
2023-05-03T09:40:55.991Z,14.70
2023-05-03T09:43:22.932Z,12.40
2023-05-03T09:45:49.930Z,17.00
2023-05-03T09:48:16.967Z,12.90
2023-05-03T09:50:43.994Z,10.90
2023-05-03T09:53:10.894Z,11.70
2023-05-03T09:55:39.030Z,11.60
2023-05-03T09:58:07.793Z,11.90
2023-05-03T10:00:38.727Z,12.80
2023-05-03T10:03:11.568Z,19.40
2023-05-03T10:05:49.256Z,28.60
2023-05-03T10:08:56.841Z,3.60
2023-05-03T10:11:27.148Z,10.50
2023-05-03T10:13:55.862Z,11.80
2023-05-03T10:16:39.407Z,11.90
2023-05-03T10:19:16.249Z,13.60
2023-05-03T10:21:57.646Z,15.40
2023-05-03T10:24:25.383Z,14.60
2023-05-03T10:26:52.393Z,12.20
2023-05-03T10:29:34.762Z,11.80
2023-05-03T10:32:04.749Z,10.00
2023-05-03T10:34:35.206Z,14.20
2023-05-03T10:37:09.722Z,11.40
2023-05-03T10:39:37.044Z,15.80
2023-05-03T10:42:06.239Z,13.00
2023-05-03T10:44:40.042Z,12.40
2023-05-03T10:47:14.754Z,16.60
2023-05-03T10:49:41.612Z,9.10
2023-05-03T10:52:39.833Z,18.60
2023-05-03T10:55:15.064Z,10.50
2023-05-03T10:57:46.911Z,8.20
2023-05-03T11:00:19.218Z,14.30
2023-05-03T11:03:09.343Z,9.20
2023-05-03T11:05:36.415Z,6.30
2023-05-03T11:08:18.072Z,15.00
2023-05-03T11:10:45.871Z,6.10
2023-05-03T11:13:12.875Z,6.90
2023-05-03T11:15:39.967Z,7.30
2023-05-03T11:18:07.702Z,9.00
2023-05-03T11:20:36.422Z,9.10
2023-05-03T11:23:06.105Z,8.20
2023-05-03T11:25:34.105Z,9.40
2023-05-03T11:28:02.226Z,11.00
2023-05-03T11:30:29.643Z,13.50
2023-05-03T11:32:56.775Z,11.40
2023-05-03T11:35:25.990Z,10.40
2023-05-03T11:37:54.128Z,9.00
2023-05-03T11:40:21.465Z,9.30
2023-05-03T11:42:56.311Z,12.20
2023-05-03T11:45:27.652Z,9.40
2023-05-03T11:47:55.679Z,10.50
2023-05-03T11:50:48.111Z,9.40
2023-05-03T11:53:15.865Z,20.40
2023-05-03T11:55:43.782Z,8.00
2023-05-03T11:58:14.710Z,8.50
2023-05-03T12:00:46.173Z,6.90
2023-05-03T12:03:21.913Z,5.30
2023-05-03T12:05:51.097Z,7.80
2023-05-03T12:08:20.805Z,13.00
2023-05-03T12:10:53.380Z,9.00
2023-05-03T12:13:30.021Z,10.20
2023-05-03T12:18:50.365Z,16.70
2023-05-03T12:23:55.663Z,9.40
2023-05-03T12:26:25.588Z,6.60
2023-05-03T12:28:56.017Z,4.20
2023-05-03T12:31:23.869Z,7.60
2023-05-03T12:34:09.161Z,11.00
2023-05-03T12:36:38.442Z,11.50
2023-05-03T12:39:10.241Z,10.00
2023-05-03T12:44:10.786Z,19.30
2023-05-03T12:46:39.177Z,9.30
2023-05-03T12:49:08.079Z,14.30
2023-05-03T12:51:36.561Z,6.90
2023-05-03T12:54:10.236Z,8.50
2023-05-03T12:56:40.404Z,7.60
2023-05-03T12:59:39.306Z,10.40
2023-05-03T13:06:59.199Z,8.60
2023-05-03T13:09:37.808Z,10.90
2023-05-03T13:12:05.633Z,8.80
2023-05-03T13:14:33.693Z,6.60
2023-05-03T13:17:01.576Z,8.30
2023-05-03T13:19:28.651Z,9.50
2023-05-03T13:21:55.591Z,9.50
2023-05-03T13:24:22.401Z,13.10
2023-05-03T13:26:49.343Z,14.30
2023-05-03T13:29:16.327Z,5.70
2023-05-03T13:31:43.229Z,12.60
2023-05-03T13:34:10.110Z,10.90
2023-05-03T13:36:37.028Z,6.10
2023-05-03T13:39:03.878Z,10.00
2023-05-03T13:41:30.691Z,7.50
2023-05-03T13:43:57.519Z,7.30
2023-05-03T13:46:24.456Z,9.20
2023-05-03T13:48:52.746Z,7.70
2023-05-03T13:51:20.056Z,10.40
2023-05-03T13:53:46.905Z,12.50
2023-05-03T13:56:13.721Z,11.50
2023-05-03T13:58:41.177Z,7.30
2023-05-03T14:01:08.082Z,7.40
2023-05-03T14:03:35.041Z,7.00
2023-05-03T14:06:02.929Z,10.10
2023-05-03T14:08:31.056Z,9.80
2023-05-03T14:10:57.999Z,8.50
2023-05-03T14:13:25.065Z,10.10
2023-05-03T14:15:52.128Z,8.60
2023-05-03T14:18:19.206Z,6.80
2023-05-03T14:20:47.182Z,9.50
2023-05-03T14:23:13.976Z,9.80
2023-05-03T14:25:41.299Z,7.30
2023-05-03T14:28:08.194Z,8.60
2023-05-03T14:30:35.124Z,9.20
2023-05-03T14:33:02.106Z,19.30
2023-05-03T14:35:29.014Z,9.90
2023-05-03T14:37:56.057Z,13.40
2023-05-03T14:40:22.967Z,9.80
2023-05-03T14:42:50.220Z,12.10
2023-05-03T14:45:17.320Z,10.70
2023-05-03T14:47:44.359Z,7.10
2023-05-03T14:50:11.404Z,9.10
2023-05-03T14:52:38.629Z,9.00
2023-05-03T14:55:06.891Z,7.90
2023-05-03T14:57:34.033Z,7.70
2023-05-03T15:00:02.657Z,18.80
2023-05-03T15:02:29.980Z,10.50
2023-05-03T15:04:57.307Z,10.60
2023-05-03T15:07:24.151Z,11.60
2023-05-03T15:09:51.552Z,13.40
2023-05-03T15:12:18.367Z,7.90
2023-05-03T15:14:45.354Z,8.70
2023-05-03T15:17:12.973Z,10.50
2023-05-03T15:19:39.991Z,7.40
2023-05-03T15:22:06.893Z,24.50
2023-05-03T15:24:33.734Z,7.80
2023-05-03T15:27:02.911Z,6.90
2023-05-03T15:29:29.755Z,11.50
2023-05-03T15:31:57.665Z,8.10
2023-05-03T15:34:24.587Z,7.90
2023-05-03T15:36:51.472Z,11.70
2023-05-03T15:39:18.364Z,10.40
2023-05-03T15:41:48.001Z,15.60
2023-05-03T15:44:16.321Z,36.20
2023-05-03T15:46:44.368Z,17.50
2023-05-03T15:49:12.036Z,12.60
2023-05-03T15:51:39.417Z,11.40
2023-05-03T15:54:06.319Z,20.80
2023-05-03T15:56:33.160Z,10.40
2023-05-03T15:58:59.937Z,13.30
2023-05-03T16:01:26.939Z,16.80
2023-05-03T16:03:53.930Z,34.50
2023-05-03T16:06:20.799Z,39.60
2023-05-03T16:08:47.713Z,13.00
2023-05-03T16:11:15.058Z,8.10
2023-05-03T16:13:41.958Z,10.90
2023-05-03T16:16:08.982Z,8.30
2023-05-03T16:18:35.881Z,12.20
2023-05-03T16:21:03.101Z,9.10
2023-05-03T16:23:30.091Z,13.90
2023-05-03T16:25:57.168Z,9.30
2023-05-03T16:28:24.044Z,10.70
2023-05-03T16:30:51.921Z,11.30
2023-05-03T16:33:19.558Z,11.60
2023-05-03T16:35:46.541Z,14.90
2023-05-03T16:38:13.422Z,8.60
2023-05-03T16:40:40.873Z,11.20
2023-05-03T16:43:07.907Z,12.40
2023-05-03T16:45:34.756Z,13.10
2023-05-03T16:48:04.776Z,14.30
2023-05-03T16:50:33.145Z,9.50
2023-05-03T16:53:00.024Z,10.90
2023-05-03T16:55:26.886Z,8.80
2023-05-03T16:57:53.772Z,11.00
2023-05-03T17:00:22.080Z,9.90
2023-05-03T17:02:49.233Z,11.00
2023-05-03T17:05:16.293Z,10.00
2023-05-03T17:07:43.217Z,18.40
2023-05-03T17:10:10.544Z,15.90
2023-05-03T17:12:37.645Z,9.70
2023-05-03T17:15:04.954Z,11.40
2023-05-03T17:17:32.506Z,8.50
2023-05-03T17:19:59.676Z,13.30
2023-05-03T17:22:28.227Z,13.90
2023-05-03T17:24:57.878Z,12.70
2023-05-03T17:27:24.852Z,21.30
2023-05-03T17:29:51.789Z,17.50
2023-05-03T17:32:18.644Z,20.30
2023-05-03T17:34:45.512Z,17.30
2023-05-03T17:37:12.336Z,17.60
2023-05-03T17:39:39.519Z,20.60
2023-05-03T17:42:06.527Z,16.10
2023-05-03T17:44:33.395Z,20.70
2023-05-03T17:47:00.860Z,7.70
2023-05-03T17:49:27.633Z,19.50
2023-05-03T17:51:54.510Z,12.90
2023-05-03T17:54:21.365Z,13.30
2023-05-03T17:56:48.171Z,10.50
2023-05-03T17:59:15.082Z,9.50
2023-05-03T18:01:42.189Z,8.70
2023-05-03T18:04:09.718Z,7.50
2023-05-03T18:06:36.685Z,5.90
2023-05-03T18:09:04.409Z,5.70
2023-05-03T18:11:31.236Z,7.40
2023-05-03T18:13:58.105Z,10.20
2023-05-03T18:16:24.996Z,5.40
2023-05-03T18:18:53.202Z,8.00
2023-05-03T18:21:22.110Z,6.80
2023-05-03T18:23:49.055Z,9.50
2023-05-03T18:26:17.327Z,7.80
2023-05-03T18:28:44.200Z,9.90
2023-05-03T18:31:11.212Z,10.30
2023-05-03T18:33:40.252Z,8.40
2023-05-03T18:36:11.655Z,9.60
2023-05-03T18:38:39.036Z,7.80
2023-05-03T18:41:14.650Z,8.50
2023-05-03T18:43:46.070Z,6.70
2023-05-03T18:46:19.465Z,5.70
2023-05-03T18:48:47.903Z,5.90
2023-05-03T18:51:16.790Z,8.70
2023-05-03T18:53:43.794Z,5.40
2023-05-03T18:56:10.887Z,4.20
2023-05-03T18:58:37.857Z,8.80
2023-05-03T19:01:05.957Z,4.50
2023-05-03T19:03:33.385Z,6.10
2023-05-03T19:06:04.145Z,7.50
2023-05-03T19:08:31.695Z,8.50
2023-05-03T19:11:09.538Z,6.10
2023-05-03T19:13:36.513Z,7.60
2023-05-03T19:16:03.633Z,10.00
2023-05-03T19:18:31.099Z,5.20
2023-05-03T19:20:58.047Z,5.20
2023-05-03T19:23:24.933Z,5.00
2023-05-03T19:25:52.012Z,4.90
2023-05-03T19:28:18.905Z,6.60
2023-05-03T19:30:46.212Z,5.70
2023-05-03T19:33:14.778Z,4.70
2023-05-03T19:35:41.680Z,4.30
2023-05-03T19:38:08.531Z,7.20
2023-05-03T19:40:35.380Z,4.60
2023-05-03T19:43:02.380Z,6.80
2023-05-03T19:45:29.270Z,6.80
2023-05-03T19:47:56.276Z,9.50
2023-05-03T19:50:23.160Z,5.10
2023-05-03T19:52:53.367Z,4.40
2023-05-03T19:55:20.557Z,4.60
2023-05-03T19:57:47.439Z,6.30
2023-05-03T20:01:40.911Z,3.30
2023-05-03T20:04:08.116Z,4.70
2023-05-03T20:06:35.139Z,5.00
2023-05-03T20:09:02.063Z,4.90
2023-05-03T20:11:28.902Z,4.00
2023-05-03T20:13:55.948Z,3.60
2023-05-03T20:16:27.188Z,5.40
2023-05-03T20:18:54.137Z,5.40
2023-05-03T20:21:20.997Z,4.00
2023-05-03T20:23:49.387Z,4.00
2023-05-03T20:26:16.385Z,6.00
2023-05-03T20:28:43.248Z,3.90
2023-05-03T20:31:11.138Z,4.20
2023-05-03T20:33:38.044Z,4.60
2023-05-03T20:36:05.320Z,4.70
2023-05-03T20:38:33.386Z,7.30
2023-05-03T20:41:00.331Z,7.30
2023-05-03T20:43:27.307Z,9.90
2023-05-03T20:45:55.267Z,5.10
2023-05-03T20:48:22.613Z,5.10
2023-05-03T20:50:50.194Z,5.20
2023-05-03T20:53:17.736Z,7.50
2023-05-03T20:55:44.597Z,4.90
2023-05-03T20:58:12.557Z,3.80
2023-05-03T21:00:40.443Z,5.10
2023-05-03T21:03:07.345Z,3.80
2023-05-03T21:05:34.235Z,11.10
2023-05-03T21:08:01.069Z,3.40
2023-05-03T21:10:28.919Z,5.40
2023-05-03T21:12:55.878Z,6.30
2023-05-03T21:15:22.759Z,5.80
2023-05-03T21:17:49.744Z,3.80
2023-05-03T21:20:16.762Z,5.10
2023-05-03T21:22:44.891Z,5.50
2023-05-03T21:25:11.776Z,5.90
2023-05-03T21:27:38.619Z,4.00
2023-05-03T21:30:07.226Z,4.30
2023-05-03T21:32:34.937Z,5.00
2023-05-03T21:35:02.080Z,7.80
2023-05-03T21:37:29.941Z,7.10
2023-05-03T21:40:01.942Z,3.50
2023-05-03T21:42:29.684Z,6.30
2023-05-03T21:44:56.554Z,7.10
2023-05-03T21:47:23.402Z,3.10
2023-05-03T21:49:51.588Z,7.00
2023-05-03T21:52:18.519Z,5.60
2023-05-03T21:54:46.385Z,4.30
2023-05-03T21:57:14.208Z,4.80
2023-05-03T21:59:41.134Z,4.40
2023-05-03T22:02:08.725Z,5.20
2023-05-03T22:04:36.816Z,5.90
2023-05-03T22:07:04.066Z,3.30
2023-05-03T22:09:30.966Z,6.70
2023-05-03T22:11:59.374Z,5.10
2023-05-03T22:14:26.450Z,4.60
2023-05-03T22:16:53.635Z,5.10
2023-05-03T22:19:20.440Z,6.10
2023-05-03T22:21:49.345Z,4.70
2023-05-03T22:24:16.362Z,4.10
2023-05-03T22:26:43.232Z,6.90
2023-05-03T22:29:10.482Z,5.60
2023-05-03T22:31:37.312Z,5.90
2023-05-03T22:34:04.176Z,4.20
2023-05-03T22:36:31.032Z,8.20
2023-05-03T22:39:01.023Z,5.00
2023-05-03T22:41:28.952Z,6.60
2023-05-03T22:43:55.763Z,7.40
2023-05-03T22:46:22.884Z,5.20
2023-05-03T22:48:50.333Z,3.80
2023-05-03T22:51:17.201Z,7.70
2023-05-03T22:53:44.028Z,4.70
2023-05-03T22:56:10.912Z,6.20
2023-05-03T22:58:37.749Z,4.30
2023-05-03T23:01:09.657Z,6.40
2023-05-03T23:03:36.958Z,4.60
2023-05-03T23:06:04.234Z,12.50
2023-05-03T23:08:31.561Z,4.40
2023-05-03T23:10:59.509Z,6.10
2023-05-03T23:13:27.410Z,6.50
2023-05-03T23:15:55.033Z,5.80
2023-05-03T23:18:22.013Z,6.40
2023-05-03T23:20:49.357Z,4.90
2023-05-03T23:23:16.307Z,4.90
2023-05-03T23:25:43.232Z,4.90
2023-05-03T23:28:10.130Z,7.30
2023-05-03T23:30:43.464Z,4.30
2023-05-03T23:33:11.080Z,5.30
2023-05-03T23:35:38.498Z,4.90
2023-05-03T23:38:05.364Z,3.60
2023-05-03T23:40:32.315Z,4.20
2023-05-03T23:42:59.182Z,5.10
2023-05-03T23:45:27.082Z,7.70
2023-05-03T23:47:54.195Z,5.20
2023-05-03T23:50:21.232Z,7.80
2023-05-03T23:52:48.125Z,5.70
2023-05-03T23:55:14.953Z,5.70
2023-05-03T23:57:42.892Z,4.40
